Terminal Aerodrome Forecast
Issued by NWS

Home | Current Version | Previous Version | Text Only | Print | Product List | Glossary On
Versions: 1 2 3 4 5 6 7 8 9 10 11 12
081
FTUS46 KHNX 201724
TAFVIS
TAF
KVIS 201724Z 2018/2118 VRB05KT P6SM FEW150
     FM210200 30009KT P6SM SCT130
      TEMPO 2103/2107 BKN130
     FM211200 VRB04KT P6SM FEW130=

USA.gov is the U.S. government's official web portal to all federal, state and local government web resources and services.